嘉手納基地の過去48時間の天気

嘉手納基地 (Kadena ab)

現在時刻: 2/1 08:14 JST (1/31 23:14 UTC) 以下の時間は現地時間です。

過去48時間のMETAR気象情報
時間 風向 風速(m/s) 視程 気温(℃) 湿度(%) 気圧(hPa) 天気現象
1 07:55 静穏 0 10km以上 16.1 72 1020.4
1 06:55 静穏 0 10km以上 13.3 89 1019.8
1 05:55 静穏 0 10km以上 12.4 90 1019.4
1 04:55 静穏 0 10km以上 12.4 91 1018.7
1 03:55 静穏 0 10km以上 11.4 92 1018.4
1 02:55 静穏 0 10km以上 11 92 1018.7
1 01:55 静穏 0 10km以上 11.5 91 1019
1 00:55 静穏 0 10km以上 9.8 93 1019.4
31 23:55 静穏 0 10km以上 10.1 92 1019.7
31 22:55 静穏 0 10km以上 9.4 91 1020.1
31 21:55 静穏 0 10km以上 9.2 90 1019.8
31 20:55 静穏 0 10km以上 9.3 88 1019.8
31 19:55 静穏 0 10km以上 11.3 83 1019.8
31 18:55 静穏 0 10km以上 13.2 73 1019.5
31 17:55 3 10km以上 16.5 62 1018.8
31 16:55 3 10km以上 18.3 52 1018.4
31 15:55 北北西 4 10km以上 18.8 53 1018.4
31 14:55 4 10km以上 19 51 1018.4
31 13:55 北北西 3 10km以上 19.1 49 1019.4
31 12:55 南東 3 10km以上 18.7 49 1020.1
31 11:55 南東 2 10km以上 17.8 48 1021.1
31 10:55 東北東 4 10km以上 17.1 49 1022.5
31 09:55 東北東 2 10km以上 15.9 55 1022.8
31 08:55 静穏 0 10km以上 12.9 77 1022.8
31 07:55 静穏 0 10km以上 7.1 90 1022.2
31 06:55 静穏 0 10km以上 6.4 90 1022.2
31 05:55 静穏 0 10km以上 7.7 89 1021.8
31 04:55 静穏 0 10km以上 8.5 90 1021.8
31 03:55 静穏 0 10km以上 8 88 1021.8
31 02:55 静穏 0 10km以上 6.4 86 1021.8
31 01:55 静穏 0 10km以上 5.8 88 1022.2
31 00:55 静穏 0 10km以上 6.5 85 1022.1
30 23:55 2 10km以上 7.5 86 1021.8
30 22:55 静穏 0 10km以上 8.1 77 1022.1
30 21:55 静穏 0 10km以上 8.6 76 1022.5
30 20:55 静穏 0 10km以上 10.3 70 1022.5
30 19:55 2 10km以上 13.2 58 1022.5
30 18:55 3 10km以上 14 53 1022.5
30 17:55 3 10km以上 14.4 55 1021.8
30 16:55 4 10km以上 14.9 52 1021.1
30 15:55 4 10km以上 15.4 50 1021.1
30 14:55 3 10km以上 15.8 46 1021.1
30 13:55 5 10km以上 16.4 46 1021.8
30 12:55 北北西 5 10km以上 16.7 44 1022.4
30 11:55 5 10km以上 16.8 44 1023.4
30 10:55 4 10km以上 15.7 50 1024.5
30 09:55 2 10km以上 14.9 48 1024.5
30 08:55 北北西 2 10km以上 13.7 49 1024.2
RODN 312255Z AUTO 00000KT 10SM OVC049 16/11 A3011 RMK AO2 SLP204 T01610110 $
RODN 312155Z AUTO 00000KT 10SM OVC046 13/12 A3009 RMK AO2 SLP198 T01330115 $
RODN 312055Z AUTO 00000KT 10SM BKN048 12/11 A3008 RMK AO2 SLP194 T01240108 53005 $
RODN 311955Z AUTO 00000KT 10SM OVC046 12/11 A3006 RMK AO2 SLP187 T01240110 $
RODN 311855Z AUTO 00000KT 10SM OVC044 11/10 A3005 RMK AO2 SLP184 T01140101 $
RODN 311755Z AUTO 00000KT 10SM OVC045 11/10 A3006 RMK AO2 SLP187 T01100097 10115 20089 57011 $
RODN 311655Z AUTO 00000KT 10SM BKN048 12/10 A3007 RMK AO2 SLP190 T01150101 $
RODN 311555Z AUTO 00000KT 10SM BKN037 BKN045 10/09 A3008 RMK AO2 SLP194 T00980087 $
RODN 311455Z AUTO 00000KT 10SM SCT041 10/09 A3009 RMK AO2 SLP197 T01010089 401930058 50002 $
RODN 311355Z AUTO 00000KT 10SM BKN037 09/08 A3010 RMK AO2 SLP201 T00940080 $
RODN 311255Z AUTO 00000KT 10SM SCT036 09/08 A3009 RMK AO2 SLP198 T00920076 $
RODN 311155Z AUTO 00000KT 10SM CLR 09/07 A3009 RMK AO2 SLP198 T00930074 10191 20091 50010 $
RODN 311055Z AUTO 00000KT 10SM CLR 11/09 A3009 RMK AO2 SLP198 T01130085 $
RODN 310955Z AUTO 00000KT 10SM CLR 13/09 A3008 RMK AO2 SLP195 T01320085 $
RODN 310855Z AUTO 01006KT 10SM CLR 17/09 A3006 RMK AO2 SLP188 T01650092 53002 $
RODN 310755Z AUTO 36006KT 10SM CLR 18/08 A3005 RMK AO2 SLP184 T01830083 $
RODN 310655Z AUTO 34008KT 10SM CLR 19/09 A3005 RMK AO2 SLP184 T01880090 $
RODN 310555Z AUTO 01007KT 10SM CLR 19/09 A3005 RMK AO2 SLP184 T01900086 10193 20130 57028 $
RODN 310455Z AUTO 34006KT 10SM CLR 19/08 A3008 RMK AO2 SLP194 T01910081 $
RODN 310355Z AUTO 13005KT 10SM CLR 19/08 A3010 RMK AO2 SLP201 T01870078 $
RODN 310255Z AUTO 14003KT 10SM CLR 18/07 A3013 RMK AO2 SLP211 T01780066 58016 $
RODN 310155Z AUTO 07007KT 10SM CLR 17/06 A3017 RMK AO2 SLP225 T01710063 $
RODN 310055Z AUTO 07004KT 10SM CLR 16/07 A3018 RMK AO2 SLP228 T01590069 $
RODN 302355Z AUTO 00000KT 10SM CLR 13/09 A3018 RMK AO2 SLP228 T01290090 10129 20059 53008 $
RODN 302255Z AUTO 00000KT 10SM CLR 07/06 A3016 RMK AO2 SLP222 T00710056 $
RODN 302155Z AUTO 00000KT 10SM CLR 06/05 A3016 RMK AO2 SLP222 T00640049 $
RODN 302055Z AUTO 00000KT 10SM SCT044 08/06 A3015 RMK AO2 SLP218 T00770060 53002 $
RODN 301955Z AUTO 00000KT 10SM OVC043 09/07 A3015 RMK AO2 SLP218 T00850070 $
RODN 301855Z AUTO 00000KT 10SM BKN043 08/06 A3015 RMK AO2 SLP218 T00800061 $
RODN 301755Z AUTO 00000KT 10SM BKN042 06/04 A3015 RMK AO2 SLP218 T00640042 10106 20058 58002 $
RODN 301655Z AUTO 00000KT 10SM FEW043 06/04 A3016 RMK AO2 SLP222 T00580040 $
RODN 301555Z AUTO 00000KT 10SM SCT041 07/04 A3016 RMK AO2 SLP221 T00650042 $
RODN 301455Z AUTO 09003KT 10SM BKN042 08/05 A3015 RMK AO2 SLP218 T00750053 401720064 58005 $
RODN 301355Z AUTO 00000KT 10SM CLR 08/04 A3016 RMK AO2 SLP221 T00810043 $
RODN 301255Z AUTO 00000KT 10SM CLR 09/05 A3017 RMK AO2 SLP225 T00860046 $
RODN 301155Z AUTO 00000KT 10SM BKN044 10/05 A3017 RMK AO2 SLP225 T01030051 10165 20097 50006 $
RODN 301055Z AUTO 01003KT 10SM BKN046 13/05 A3017 RMK AO2 SLP225 T01320051 $
RODN 300955Z AUTO 35006KT 10SM OVC049 14/05 A3017 RMK AO2 SLP225 T01400046 $
RODN 300855Z AUTO 35006KT 10SM OVC045 14/06 A3015 RMK AO2 SLP218 T01440055 53005 $
RODN 300755Z AUTO 01008KT 10SM OVC045 15/05 A3013 RMK AO2 SLP211 T01490051 $
RODN 300655Z AUTO 36007KT 10SM BKN048 15/05 A3013 RMK AO2 SLP211 T01540050 $
RODN 300555Z AUTO 36005KT 10SM FEW049 16/04 A3013 RMK AO2 SLP211 T01580042 10172 20137 57023 $
RODN 300455Z AUTO 36010G17KT 10SM BKN046 16/05 A3015 RMK AO2 SLP218 T01640047 $
RODN 300355Z AUTO 34010G15KT 10SM BKN050 17/04 A3017 RMK AO2 SLP224 T01670044 $
RODN 300255Z AUTO 36009KT 10SM SCT050 17/05 A3020 RMK AO2 SLP234 T01680045 58006 $
RODN 300155Z AUTO 36008KT 10SM BKN049 OVC060 16/05 A3023 RMK AO2 SLP245 T01570053 $
RODN 300055Z AUTO 36003KT 10SM FEW045 BKN055 15/04 A3023 RMK AO2 SLP245 T01490040 $
RODN 292355Z AUTO 33003KT 10SM OVC055 14/03 A3022 RMK AO2 SLP242 T01370032 10137 20119 52017 $